sensor_id;sensor_type;location;lat;lon;timestamp;temperature;humidity
54846;DHT22;53889;50.084;8.646;2023-11-19T00:00:58;8.30;99.90
54846;DHT22;53889;50.084;8.646;2023-11-19T00:03:25;8.30;99.90
54846;DHT22;53889;50.084;8.646;2023-11-19T00:05:53;8.30;99.90
54846;DHT22;53889;50.084;8.646;2023-11-19T00:08:21;8.30;99.90
54846;DHT22;53889;50.084;8.646;2023-11-19T00:10:48;8.30;99.90
54846;DHT22;53889;50.084;8.646;2023-11-19T00:13:16;8.40;99.90
54846;DHT22;53889;50.084;8.646;2023-11-19T00:15:43;8.40;99.90
54846;DHT22;53889;50.084;8.646;2023-11-19T00:20:37;8.40;99.90
54846;DHT22;53889;50.084;8.646;2023-11-19T00:23:05;8.50;99.90
54846;DHT22;53889;50.084;8.646;2023-11-19T00:25:33;8.40;99.90
54846;DHT22;53889;50.084;8.646;2023-11-19T00:27:59;8.40;99.90
54846;DHT22;53889;50.084;8.646;2023-11-19T00:30:26;8.40;99.90
54846;DHT22;53889;50.084;8.646;2023-11-19T00:32:53;8.40;99.90
54846;DHT22;53889;50.084;8.646;2023-11-19T00:35:20;8.40;99.90
54846;DHT22;53889;50.084;8.646;2023-11-19T00:37:47;8.40;99.90
54846;DHT22;53889;50.084;8.646;2023-11-19T00:40:16;8.40;99.90
54846;DHT22;53889;50.084;8.646;2023-11-19T00:42:43;8.40;99.90
54846;DHT22;53889;50.084;8.646;2023-11-19T00:45:10;8.40;99.90
54846;DHT22;53889;50.084;8.646;2023-11-19T00:47:39;8.50;99.90
54846;DHT22;53889;50.084;8.646;2023-11-19T00:50:06;8.50;99.90
54846;DHT22;53889;50.084;8.646;2023-11-19T00:52:35;8.40;99.90
54846;DHT22;53889;50.084;8.646;2023-11-19T00:55:03;8.50;99.90
54846;DHT22;53889;50.084;8.646;2023-11-19T00:57:31;8.50;99.90
54846;DHT22;53889;50.084;8.646;2023-11-19T00:59:58;8.50;99.90
54846;DHT22;53889;50.084;8.646;2023-11-19T01:02:25;8.50;99.90
54846;DHT22;53889;50.084;8.646;2023-11-19T01:04:52;8.50;99.90
54846;DHT22;53889;50.084;8.646;2023-11-19T01:07:19;8.60;99.90
54846;DHT22;53889;50.084;8.646;2023-11-19T01:09:47;8.60;99.90
54846;DHT22;53889;50.084;8.646;2023-11-19T01:12:14;8.60;99.90
54846;DHT22;53889;50.084;8.646;2023-11-19T01:14:42;8.50;99.90
54846;DHT22;53889;50.084;8.646;2023-11-19T01:17:08;8.60;99.90
54846;DHT22;53889;50.084;8.646;2023-11-19T01:19:35;8.60;99.90
54846;DHT22;53889;50.084;8.646;2023-11-19T01:22:01;8.60;99.90
54846;DHT22;53889;50.084;8.646;2023-11-19T01:24:28;8.60;99.90
54846;DHT22;53889;50.084;8.646;2023-11-19T01:26:56;8.60;99.90
54846;DHT22;53889;50.084;8.646;2023-11-19T01:29:25;8.60;99.90
54846;DHT22;53889;50.084;8.646;2023-11-19T01:31:53;8.60;99.90
54846;DHT22;53889;50.084;8.646;2023-11-19T01:34:19;8.60;99.90
54846;DHT22;53889;50.084;8.646;2023-11-19T01:36:46;8.60;99.90
54846;DHT22;53889;50.084;8.646;2023-11-19T01:39:14;8.70;99.90
54846;DHT22;53889;50.084;8.646;2023-11-19T01:41:41;8.70;99.90
54846;DHT22;53889;50.084;8.646;2023-11-19T01:44:09;8.80;99.90
54846;DHT22;53889;50.084;8.646;2023-11-19T01:49:06;8.80;99.90
54846;DHT22;53889;50.084;8.646;2023-11-19T01:51:34;8.80;99.90
54846;DHT22;53889;50.084;8.646;2023-11-19T01:54:01;8.40;99.90
54846;DHT22;53889;50.084;8.646;2023-11-19T01:56:28;8.80;99.90
54846;DHT22;53889;50.084;8.646;2023-11-19T01:58:56;8.90;99.90
54846;DHT22;53889;50.084;8.646;2023-11-19T02:01:24;8.90;99.90
54846;DHT22;53889;50.084;8.646;2023-11-19T02:03:51;8.90;99.90
54846;DHT22;53889;50.084;8.646;2023-11-19T02:06:19;8.90;99.90
54846;DHT22;53889;50.084;8.646;2023-11-19T02:08:46;8.90;99.90
54846;DHT22;53889;50.084;8.646;2023-11-19T02:11:13;8.90;99.90
54846;DHT22;53889;50.084;8.646;2023-11-19T02:13:40;8.80;99.90
54846;DHT22;53889;50.084;8.646;2023-11-19T02:16:09;8.90;99.90
54846;DHT22;53889;50.084;8.646;2023-11-19T02:18:36;8.90;99.90
54846;DHT22;53889;50.084;8.646;2023-11-19T02:21:04;8.90;99.90
54846;DHT22;53889;50.084;8.646;2023-11-19T02:23:33;8.90;99.90
54846;DHT22;53889;50.084;8.646;2023-11-19T02:26:09;9.00;99.90
54846;DHT22;53889;50.084;8.646;2023-11-19T02:28:38;8.90;99.90
54846;DHT22;53889;50.084;8.646;2023-11-19T02:31:05;9.00;99.90
54846;DHT22;53889;50.084;8.646;2023-11-19T02:33:35;9.00;99.90
54846;DHT22;53889;50.084;8.646;2023-11-19T02:36:01;9.00;99.90
54846;DHT22;53889;50.084;8.646;2023-11-19T02:38:29;9.00;99.90
54846;DHT22;53889;50.084;8.646;2023-11-19T02:40:56;9.00;99.90
54846;DHT22;53889;50.084;8.646;2023-11-19T02:43:23;9.00;99.90
54846;DHT22;53889;50.084;8.646;2023-11-19T02:45:51;9.00;99.90
54846;DHT22;53889;50.084;8.646;2023-11-19T02:48:21;9.00;99.90
54846;DHT22;53889;50.084;8.646;2023-11-19T02:50:47;9.00;99.90
54846;DHT22;53889;50.084;8.646;2023-11-19T02:53:14;9.00;99.90
54846;DHT22;53889;50.084;8.646;2023-11-19T02:55:41;9.10;99.90
54846;DHT22;53889;50.084;8.646;2023-11-19T02:58:13;9.10;99.90
54846;DHT22;53889;50.084;8.646;2023-11-19T03:00:48;9.10;99.90
54846;DHT22;53889;50.084;8.646;2023-11-19T03:03:23;9.20;99.90
54846;DHT22;53889;50.084;8.646;2023-11-19T03:05:54;9.20;99.90
54846;DHT22;53889;50.084;8.646;2023-11-19T03:08:21;9.20;99.90
54846;DHT22;53889;50.084;8.646;2023-11-19T03:10:48;9.20;99.90
54846;DHT22;53889;50.084;8.646;2023-11-19T03:13:15;9.20;99.90
54846;DHT22;53889;50.084;8.646;2023-11-19T03:15:42;9.20;99.90
54846;DHT22;53889;50.084;8.646;2023-11-19T03:18:09;9.20;99.90
54846;DHT22;53889;50.084;8.646;2023-11-19T03:20:37;9.20;99.90
54846;DHT22;53889;50.084;8.646;2023-11-19T03:23:04;9.20;99.90
54846;DHT22;53889;50.084;8.646;2023-11-19T03:25:31;9.20;99.90
54846;DHT22;53889;50.084;8.646;2023-11-19T03:28:00;9.30;99.90
54846;DHT22;53889;50.084;8.646;2023-11-19T03:30:28;9.30;99.90
54846;DHT22;53889;50.084;8.646;2023-11-19T03:32:54;9.30;99.90
54846;DHT22;53889;50.084;8.646;2023-11-19T03:35:21;9.30;99.90
54846;DHT22;53889;50.084;8.646;2023-11-19T03:37:50;9.30;99.90
54846;DHT22;53889;50.084;8.646;2023-11-19T03:40:17;9.30;99.90
54846;DHT22;53889;50.084;8.646;2023-11-19T03:42:44;9.40;99.90
54846;DHT22;53889;50.084;8.646;2023-11-19T03:45:11;9.40;99.90
54846;DHT22;53889;50.084;8.646;2023-11-19T03:47:38;9.40;99.90
54846;DHT22;53889;50.084;8.646;2023-11-19T03:50:06;9.30;99.90
54846;DHT22;53889;50.084;8.646;2023-11-19T03:52:33;9.30;99.90
54846;DHT22;53889;50.084;8.646;2023-11-19T03:55:01;9.40;99.90
54846;DHT22;53889;50.084;8.646;2023-11-19T03:57:28;9.40;99.90
54846;DHT22;53889;50.084;8.646;2023-11-19T03:59:55;9.40;99.90
54846;DHT22;53889;50.084;8.646;2023-11-19T04:02:24;9.40;99.90
54846;DHT22;53889;50.084;8.646;2023-11-19T04:04:53;9.40;99.90
54846;DHT22;53889;50.084;8.646;2023-11-19T04:07:20;9.50;99.90
54846;DHT22;53889;50.084;8.646;2023-11-19T04:09:47;9.50;99.90
54846;DHT22;53889;50.084;8.646;2023-11-19T04:12:14;9.50;99.90
54846;DHT22;53889;50.084;8.646;2023-11-19T04:14:41;9.50;99.90
54846;DHT22;53889;50.084;8.646;2023-11-19T04:17:08;9.50;99.90
54846;DHT22;53889;50.084;8.646;2023-11-19T04:19:34;9.50;99.90
54846;DHT22;53889;50.084;8.646;2023-11-19T04:22:01;9.50;99.90
54846;DHT22;53889;50.084;8.646;2023-11-19T04:24:28;9.50;99.90
54846;DHT22;53889;50.084;8.646;2023-11-19T04:26:54;9.50;99.90
54846;DHT22;53889;50.084;8.646;2023-11-19T04:29:22;9.60;99.90
54846;DHT22;53889;50.084;8.646;2023-11-19T04:31:51;9.60;99.90
54846;DHT22;53889;50.084;8.646;2023-11-19T04:34:17;9.60;99.90
54846;DHT22;53889;50.084;8.646;2023-11-19T04:36:44;9.60;99.90
54846;DHT22;53889;50.084;8.646;2023-11-19T04:39:11;9.60;99.90
54846;DHT22;53889;50.084;8.646;2023-11-19T04:41:46;9.60;99.90
54846;DHT22;53889;50.084;8.646;2023-11-19T04:44:13;9.60;99.90
54846;DHT22;53889;50.084;8.646;2023-11-19T04:46:42;9.60;99.90
54846;DHT22;53889;50.084;8.646;2023-11-19T04:49:09;9.60;99.90
54846;DHT22;53889;50.084;8.646;2023-11-19T04:51:38;9.60;99.90
54846;DHT22;53889;50.084;8.646;2023-11-19T04:54:06;9.70;99.90
54846;DHT22;53889;50.084;8.646;2023-11-19T04:56:34;9.70;99.90
54846;DHT22;53889;50.084;8.646;2023-11-19T04:59:00;9.70;99.90
54846;DHT22;53889;50.084;8.646;2023-11-19T05:01:27;9.70;99.90
54846;DHT22;53889;50.084;8.646;2023-11-19T05:03:56;9.80;99.90
54846;DHT22;53889;50.084;8.646;2023-11-19T05:06:26;9.70;99.90
54846;DHT22;53889;50.084;8.646;2023-11-19T05:08:53;9.70;99.90
54846;DHT22;53889;50.084;8.646;2023-11-19T05:11:20;9.70;99.90
54846;DHT22;53889;50.084;8.646;2023-11-19T05:13:47;9.70;99.90
54846;DHT22;53889;50.084;8.646;2023-11-19T05:16:13;9.70;99.90
54846;DHT22;53889;50.084;8.646;2023-11-19T05:18:40;9.70;99.90
54846;DHT22;53889;50.084;8.646;2023-11-19T05:21:09;9.70;99.90
54846;DHT22;53889;50.084;8.646;2023-11-19T05:23:36;9.70;99.90
54846;DHT22;53889;50.084;8.646;2023-11-19T05:26:03;9.70;99.90
54846;DHT22;53889;50.084;8.646;2023-11-19T05:28:30;9.80;99.90
54846;DHT22;53889;50.084;8.646;2023-11-19T05:33:24;9.80;99.90
54846;DHT22;53889;50.084;8.646;2023-11-19T05:35:51;9.80;99.90
54846;DHT22;53889;50.084;8.646;2023-11-19T05:38:19;9.80;99.90
54846;DHT22;53889;50.084;8.646;2023-11-19T05:40:46;9.80;99.90
54846;DHT22;53889;50.084;8.646;2023-11-19T05:43:14;9.60;99.90
54846;DHT22;53889;50.084;8.646;2023-11-19T05:45:42;9.80;99.90
54846;DHT22;53889;50.084;8.646;2023-11-19T05:48:09;9.80;99.90
54846;DHT22;53889;50.084;8.646;2023-11-19T05:50:36;9.90;99.90
54846;DHT22;53889;50.084;8.646;2023-11-19T05:53:02;9.90;99.90
54846;DHT22;53889;50.084;8.646;2023-11-19T05:55:33;9.90;99.90
54846;DHT22;53889;50.084;8.646;2023-11-19T05:58:00;9.90;99.90
54846;DHT22;53889;50.084;8.646;2023-11-19T06:00:28;9.90;99.90
54846;DHT22;53889;50.084;8.646;2023-11-19T06:02:56;9.90;99.90
54846;DHT22;53889;50.084;8.646;2023-11-19T06:05:22;9.90;99.90
54846;DHT22;53889;50.084;8.646;2023-11-19T06:07:49;10.00;99.90
54846;DHT22;53889;50.084;8.646;2023-11-19T06:10:16;10.00;99.90
54846;DHT22;53889;50.084;8.646;2023-11-19T06:12:46;9.90;99.90
54846;DHT22;53889;50.084;8.646;2023-11-19T06:15:13;10.00;99.90
54846;DHT22;53889;50.084;8.646;2023-11-19T06:17:39;9.90;99.90
54846;DHT22;53889;50.084;8.646;2023-11-19T06:20:07;10.00;99.90
54846;DHT22;53889;50.084;8.646;2023-11-19T06:22:34;10.00;99.90
54846;DHT22;53889;50.084;8.646;2023-11-19T06:25:01;10.00;99.90
54846;DHT22;53889;50.084;8.646;2023-11-19T06:27:32;10.00;99.90
54846;DHT22;53889;50.084;8.646;2023-11-19T06:30:00;10.10;99.90
54846;DHT22;53889;50.084;8.646;2023-11-19T06:32:27;10.20;99.90
54846;DHT22;53889;50.084;8.646;2023-11-19T06:34:54;10.20;99.90
54846;DHT22;53889;50.084;8.646;2023-11-19T06:37:21;10.20;99.90
54846;DHT22;53889;50.084;8.646;2023-11-19T06:39:48;10.20;99.90
54846;DHT22;53889;50.084;8.646;2023-11-19T06:42:15;10.10;99.90
54846;DHT22;53889;50.084;8.646;2023-11-19T06:44:42;10.20;99.90
54846;DHT22;53889;50.084;8.646;2023-11-19T06:47:10;10.20;99.90
54846;DHT22;53889;50.084;8.646;2023-11-19T06:49:37;10.20;99.90
54846;DHT22;53889;50.084;8.646;2023-11-19T06:52:04;10.20;99.90
54846;DHT22;53889;50.084;8.646;2023-11-19T06:54:31;10.20;99.90
54846;DHT22;53889;50.084;8.646;2023-11-19T06:56:58;10.20;99.90
54846;DHT22;53889;50.084;8.646;2023-11-19T06:59:25;10.30;99.90
54846;DHT22;53889;50.084;8.646;2023-11-19T07:01:52;10.30;99.90
54846;DHT22;53889;50.084;8.646;2023-11-19T07:04:21;10.70;99.90
54846;DHT22;53889;50.084;8.646;2023-11-19T07:06:47;10.30;99.90
54846;DHT22;53889;50.084;8.646;2023-11-19T07:09:14;10.40;99.90
54846;DHT22;53889;50.084;8.646;2023-11-19T07:11:41;10.40;99.90
54846;DHT22;53889;50.084;8.646;2023-11-19T07:14:09;10.40;99.90
54846;DHT22;53889;50.084;8.646;2023-11-19T07:16:37;10.50;99.90
54846;DHT22;53889;50.084;8.646;2023-11-19T07:19:04;10.50;99.90
54846;DHT22;53889;50.084;8.646;2023-11-19T07:21:33;10.60;99.90
54846;DHT22;53889;50.084;8.646;2023-11-19T07:24:01;10.60;99.90
54846;DHT22;53889;50.084;8.646;2023-11-19T07:26:28;10.60;99.90
54846;DHT22;53889;50.084;8.646;2023-11-19T07:28:55;10.70;99.90
54846;DHT22;53889;50.084;8.646;2023-11-19T07:31:22;10.70;99.90
54846;DHT22;53889;50.084;8.646;2023-11-19T07:33:49;10.70;99.90
54846;DHT22;53889;50.084;8.646;2023-11-19T07:36:16;10.70;99.90
54846;DHT22;53889;50.084;8.646;2023-11-19T07:38:45;10.70;99.90
54846;DHT22;53889;50.084;8.646;2023-11-19T07:41:12;10.70;99.90
54846;DHT22;53889;50.084;8.646;2023-11-19T07:43:39;10.80;99.90
54846;DHT22;53889;50.084;8.646;2023-11-19T07:46:10;10.80;99.90
54846;DHT22;53889;50.084;8.646;2023-11-19T07:48:38;10.80;99.90
54846;DHT22;53889;50.084;8.646;2023-11-19T07:51:05;10.80;99.90
54846;DHT22;53889;50.084;8.646;2023-11-19T07:53:32;10.80;99.90
54846;DHT22;53889;50.084;8.646;2023-11-19T07:56:01;10.80;99.90
54846;DHT22;53889;50.084;8.646;2023-11-19T07:58:27;10.80;99.90
54846;DHT22;53889;50.084;8.646;2023-11-19T08:00:54;10.90;99.90
54846;DHT22;53889;50.084;8.646;2023-11-19T08:03:21;11.00;99.90
54846;DHT22;53889;50.084;8.646;2023-11-19T08:05:48;11.00;99.90
54846;DHT22;53889;50.084;8.646;2023-11-19T08:10:42;11.20;99.90
54846;DHT22;53889;50.084;8.646;2023-11-19T08:13:11;11.30;99.90
54846;DHT22;53889;50.084;8.646;2023-11-19T08:15:37;11.40;99.90
54846;DHT22;53889;50.084;8.646;2023-11-19T08:18:04;11.40;99.90
54846;DHT22;53889;50.084;8.646;2023-11-19T08:20:32;11.50;99.90
54846;DHT22;53889;50.084;8.646;2023-11-19T08:22:59;11.70;99.90
54846;DHT22;53889;50.084;8.646;2023-11-19T08:25:26;11.70;99.90
54846;DHT22;53889;50.084;8.646;2023-11-19T08:27:54;11.80;99.90
54846;DHT22;53889;50.084;8.646;2023-11-19T08:30:22;11.90;99.90
54846;DHT22;53889;50.084;8.646;2023-11-19T08:32:49;12.00;99.90
54846;DHT22;53889;50.084;8.646;2023-11-19T08:35:16;12.20;99.90
54846;DHT22;53889;50.084;8.646;2023-11-19T08:37:43;12.40;99.90
54846;DHT22;53889;50.084;8.646;2023-11-19T08:40:12;12.40;99.90
54846;DHT22;53889;50.084;8.646;2023-11-19T08:42:40;12.40;99.90
54846;DHT22;53889;50.084;8.646;2023-11-19T08:45:07;12.40;99.90
54846;DHT22;53889;50.084;8.646;2023-11-19T08:47:37;12.20;99.90
54846;DHT22;53889;50.084;8.646;2023-11-19T08:50:06;12.10;99.90
54846;DHT22;53889;50.084;8.646;2023-11-19T08:52:33;12.00;99.90
54846;DHT22;53889;50.084;8.646;2023-11-19T08:55:00;12.00;99.90
54846;DHT22;53889;50.084;8.646;2023-11-19T08:57:27;12.00;99.90
54846;DHT22;53889;50.084;8.646;2023-11-19T08:59:53;12.10;99.90
54846;DHT22;53889;50.084;8.646;2023-11-19T09:02:20;12.10;99.90
54846;DHT22;53889;50.084;8.646;2023-11-19T09:04:48;12.10;99.90
54846;DHT22;53889;50.084;8.646;2023-11-19T09:07:14;12.00;99.90
54846;DHT22;53889;50.084;8.646;2023-11-19T09:09:41;12.00;99.90
54846;DHT22;53889;50.084;8.646;2023-11-19T09:12:08;12.00;99.90
54846;DHT22;53889;50.084;8.646;2023-11-19T09:14:34;12.00;99.90
54846;DHT22;53889;50.084;8.646;2023-11-19T09:17:01;12.10;99.90
54846;DHT22;53889;50.084;8.646;2023-11-19T09:19:28;12.40;99.90
54846;DHT22;53889;50.084;8.646;2023-11-19T09:21:56;12.40;99.90
54846;DHT22;53889;50.084;8.646;2023-11-19T09:24:22;12.60;99.90
54846;DHT22;53889;50.084;8.646;2023-11-19T09:26:49;13.00;99.90
54846;DHT22;53889;50.084;8.646;2023-11-19T09:29:16;14.20;99.90
54846;DHT22;53889;50.084;8.646;2023-11-19T09:31:43;14.40;99.90
54846;DHT22;53889;50.084;8.646;2023-11-19T09:34:09;15.00;99.90
54846;DHT22;53889;50.084;8.646;2023-11-19T09:36:36;15.70;99.90
54846;DHT22;53889;50.084;8.646;2023-11-19T09:39:04;16.50;99.90
54846;DHT22;53889;50.084;8.646;2023-11-19T09:41:33;16.60;99.90
54846;DHT22;53889;50.084;8.646;2023-11-19T09:44:00;17.20;99.90
54846;DHT22;53889;50.084;8.646;2023-11-19T09:46:27;17.60;99.90
54846;DHT22;53889;50.084;8.646;2023-11-19T09:48:56;18.00;99.90
54846;DHT22;53889;50.084;8.646;2023-11-19T09:51:24;18.00;99.90
54846;DHT22;53889;50.084;8.646;2023-11-19T09:53:51;18.00;99.90
54846;DHT22;53889;50.084;8.646;2023-11-19T09:56:20;17.90;99.90
54846;DHT22;53889;50.084;8.646;2023-11-19T09:58:47;18.20;99.90
54846;DHT22;53889;50.084;8.646;2023-11-19T10:01:14;18.20;99.90
54846;DHT22;53889;50.084;8.646;2023-11-19T10:03:41;17.40;99.90
54846;DHT22;53889;50.084;8.646;2023-11-19T10:06:09;17.10;99.90
54846;DHT22;53889;50.084;8.646;2023-11-19T10:08:37;17.10;99.90
54846;DHT22;53889;50.084;8.646;2023-11-19T10:11:05;16.80;99.90
54846;DHT22;53889;50.084;8.646;2023-11-19T10:13:35;16.90;99.90
54846;DHT22;53889;50.084;8.646;2023-11-19T10:16:04;16.50;99.90
54846;DHT22;53889;50.084;8.646;2023-11-19T10:18:31;16.40;99.90
54846;DHT22;53889;50.084;8.646;2023-11-19T10:21:03;16.70;99.90
54846;DHT22;53889;50.084;8.646;2023-11-19T10:23:31;17.20;99.90
54846;DHT22;53889;50.084;8.646;2023-11-19T10:26:03;17.40;99.90
54846;DHT22;53889;50.084;8.646;2023-11-19T10:28:39;17.70;99.90
54846;DHT22;53889;50.084;8.646;2023-11-19T10:31:08;17.90;99.90
54846;DHT22;53889;50.084;8.646;2023-11-19T10:33:34;17.70;99.90
54846;DHT22;53889;50.084;8.646;2023-11-19T10:36:01;18.10;99.90
54846;DHT22;53889;50.084;8.646;2023-11-19T10:38:28;18.50;99.90
54846;DHT22;53889;50.084;8.646;2023-11-19T10:40:56;18.60;99.90
54846;DHT22;53889;50.084;8.646;2023-11-19T10:43:23;18.50;99.90
54846;DHT22;53889;50.084;8.646;2023-11-19T10:45:51;18.20;99.90
54846;DHT22;53889;50.084;8.646;2023-11-19T10:48:18;18.00;99.90
54846;DHT22;53889;50.084;8.646;2023-11-19T10:50:52;18.00;99.90
54846;DHT22;53889;50.084;8.646;2023-11-19T10:53:21;17.80;99.90
54846;DHT22;53889;50.084;8.646;2023-11-19T10:55:51;18.20;99.90
54846;DHT22;53889;50.084;8.646;2023-11-19T10:58:19;18.30;99.90
54846;DHT22;53889;50.084;8.646;2023-11-19T11:00:51;18.20;99.90
54846;DHT22;53889;50.084;8.646;2023-11-19T11:03:21;18.40;99.90
54846;DHT22;53889;50.084;8.646;2023-11-19T11:05:50;18.60;99.60
54846;DHT22;53889;50.084;8.646;2023-11-19T11:08:17;18.60;99.40
54846;DHT22;53889;50.084;8.646;2023-11-19T11:10:45;18.80;98.60
54846;DHT22;53889;50.084;8.646;2023-11-19T11:13:14;18.70;97.80
54846;DHT22;53889;50.084;8.646;2023-11-19T11:15:41;18.20;98.70
54846;DHT22;53889;50.084;8.646;2023-11-19T11:18:09;17.40;99.30
54846;DHT22;53889;50.084;8.646;2023-11-19T11:20:37;17.00;99.90
54846;DHT22;53889;50.084;8.646;2023-11-19T11:26:08;17.00;99.60
54846;DHT22;53889;50.084;8.646;2023-11-19T11:28:44;16.80;99.90
54846;DHT22;53889;50.084;8.646;2023-11-19T11:31:20;16.20;99.90
54846;DHT22;53889;50.084;8.646;2023-11-19T11:36:53;15.70;99.90
54846;DHT22;53889;50.084;8.646;2023-11-19T11:39:26;16.00;99.90
54846;DHT22;53889;50.084;8.646;2023-11-19T11:42:30;16.00;99.90
54846;DHT22;53889;50.084;8.646;2023-11-19T11:45:02;16.00;99.90
54846;DHT22;53889;50.084;8.646;2023-11-19T11:48:05;15.90;99.90
54846;DHT22;53889;50.084;8.646;2023-11-19T11:50:34;15.70;99.90
54846;DHT22;53889;50.084;8.646;2023-11-19T11:53:17;15.60;99.90
54846;DHT22;53889;50.084;8.646;2023-11-19T11:55:57;15.40;99.90
54846;DHT22;53889;50.084;8.646;2023-11-19T11:58:31;15.30;99.90
54846;DHT22;53889;50.084;8.646;2023-11-19T12:00:59;15.80;99.90
54846;DHT22;53889;50.084;8.646;2023-11-19T12:03:28;16.30;99.90
54846;DHT22;53889;50.084;8.646;2023-11-19T12:05:54;16.60;99.90
54846;DHT22;53889;50.084;8.646;2023-11-19T12:08:26;16.80;99.90
54846;DHT22;53889;50.084;8.646;2023-11-19T12:10:54;17.10;99.10
54846;DHT22;53889;50.084;8.646;2023-11-19T12:13:23;17.00;99.50
54846;DHT22;53889;50.084;8.646;2023-11-19T12:16:10;16.80;99.90
54846;DHT22;53889;50.084;8.646;2023-11-19T12:18:39;16.40;99.90
54846;DHT22;53889;50.084;8.646;2023-11-19T12:21:06;16.00;99.90
54846;DHT22;53889;50.084;8.646;2023-11-19T12:23:44;15.60;99.90
54846;DHT22;53889;50.084;8.646;2023-11-19T12:26:21;15.60;99.90
54846;DHT22;53889;50.084;8.646;2023-11-19T12:29:00;16.00;99.90
54846;DHT22;53889;50.084;8.646;2023-11-19T12:31:29;16.40;99.90
54846;DHT22;53889;50.084;8.646;2023-11-19T12:33:57;16.60;99.80
54846;DHT22;53889;50.084;8.646;2023-11-19T12:36:23;16.60;99.60
54846;DHT22;53889;50.084;8.646;2023-11-19T12:38:51;16.40;99.30
54846;DHT22;53889;50.084;8.646;2023-11-19T12:43:49;16.20;99.30
54846;DHT22;53889;50.084;8.646;2023-11-19T12:46:20;16.70;98.80
54846;DHT22;53889;50.084;8.646;2023-11-19T12:48:47;17.10;98.00
54846;DHT22;53889;50.084;8.646;2023-11-19T12:51:14;17.50;96.80
54846;DHT22;53889;50.084;8.646;2023-11-19T12:53:48;17.70;96.70
54846;DHT22;53889;50.084;8.646;2023-11-19T12:56:17;17.50;96.70
54846;DHT22;53889;50.084;8.646;2023-11-19T13:01:15;17.50;96.80
54846;DHT22;53889;50.084;8.646;2023-11-19T13:03:42;17.50;96.70
54846;DHT22;53889;50.084;8.646;2023-11-19T13:06:10;17.30;96.70
54846;DHT22;53889;50.084;8.646;2023-11-19T13:08:38;17.20;96.60
54846;DHT22;53889;50.084;8.646;2023-11-19T13:11:06;17.10;97.10
54846;DHT22;53889;50.084;8.646;2023-11-19T13:13:53;17.20;97.20
54846;DHT22;53889;50.084;8.646;2023-11-19T13:18:47;17.30;97.10
54846;DHT22;53889;50.084;8.646;2023-11-19T13:21:14;17.30;96.90
54846;DHT22;53889;50.084;8.646;2023-11-19T13:26:08;17.30;97.20
54846;DHT22;53889;50.084;8.646;2023-11-19T13:28:36;17.20;97.30
54846;DHT22;53889;50.084;8.646;2023-11-19T13:31:03;17.10;97.40
54846;DHT22;53889;50.084;8.646;2023-11-19T13:35:57;16.60;97.90
54846;DHT22;53889;50.084;8.646;2023-11-19T13:38:25;16.40;98.30
54846;DHT22;53889;50.084;8.646;2023-11-19T13:45:47;16.40;97.40
54846;DHT22;53889;50.084;8.646;2023-11-19T13:48:14;16.40;98.20
54846;DHT22;53889;50.084;8.646;2023-11-19T13:50:41;16.30;97.50
54846;DHT22;53889;50.084;8.646;2023-11-19T13:55:35;16.10;97.30
54846;DHT22;53889;50.084;8.646;2023-11-19T13:58:03;16.00;97.20
54846;DHT22;53889;50.084;8.646;2023-11-19T14:00:30;15.90;97.10
54846;DHT22;53889;50.084;8.646;2023-11-19T14:05:25;15.70;97.00
54846;DHT22;53889;50.084;8.646;2023-11-19T14:07:52;15.70;97.50
54846;DHT22;53889;50.084;8.646;2023-11-19T14:10:21;15.60;97.20
54846;DHT22;53889;50.084;8.646;2023-11-19T14:12:49;15.60;97.80
54846;DHT22;53889;50.084;8.646;2023-11-19T14:15:16;15.60;97.60
54846;DHT22;53889;50.084;8.646;2023-11-19T14:17:43;15.60;97.20
54846;DHT22;53889;50.084;8.646;2023-11-19T14:20:12;15.40;97.30
54846;DHT22;53889;50.084;8.646;2023-11-19T14:22:39;15.40;97.20
54846;DHT22;53889;50.084;8.646;2023-11-19T14:25:07;15.30;96.80
54846;DHT22;53889;50.084;8.646;2023-11-19T14:27:36;15.40;97.70
54846;DHT22;53889;50.084;8.646;2023-11-19T14:30:04;15.30;96.80
54846;DHT22;53889;50.084;8.646;2023-11-19T14:34:58;15.10;96.70
54846;DHT22;53889;50.084;8.646;2023-11-19T14:37:26;15.10;97.20
54846;DHT22;53889;50.084;8.646;2023-11-19T14:39:53;14.90;97.50
54846;DHT22;53889;50.084;8.646;2023-11-19T14:44:48;14.80;97.30
54846;DHT22;53889;50.084;8.646;2023-11-19T14:47:15;14.70;97.30
54846;DHT22;53889;50.084;8.646;2023-11-19T14:49:41;14.60;97.50
54846;DHT22;53889;50.084;8.646;2023-11-19T14:52:09;14.60;97.60
54846;DHT22;53889;50.084;8.646;2023-11-19T14:57:05;14.50;98.00
54846;DHT22;53889;50.084;8.646;2023-11-19T15:02:00;14.50;98.00
54846;DHT22;53889;50.084;8.646;2023-11-19T15:06:56;14.50;98.00
54846;DHT22;53889;50.084;8.646;2023-11-19T15:09:23;14.50;97.80
54846;DHT22;53889;50.084;8.646;2023-11-19T15:11:53;14.40;97.80
54846;DHT22;53889;50.084;8.646;2023-11-19T15:14:20;14.40;97.80
54846;DHT22;53889;50.084;8.646;2023-11-19T15:16:47;15.20;98.50
54846;DHT22;53889;50.084;8.646;2023-11-19T15:19:16;14.30;98.10
54846;DHT22;53889;50.084;8.646;2023-11-19T15:21:44;14.30;98.20
54846;DHT22;53889;50.084;8.646;2023-11-19T15:24:10;14.30;98.00
54846;DHT22;53889;50.084;8.646;2023-11-19T15:26:37;14.30;98.50
54846;DHT22;53889;50.084;8.646;2023-11-19T15:29:05;14.10;98.10
54846;DHT22;53889;50.084;8.646;2023-11-19T15:34:00;14.10;98.10
54846;DHT22;53889;50.084;8.646;2023-11-19T15:36:28;14.00;98.40
54846;DHT22;53889;50.084;8.646;2023-11-19T15:38:54;14.40;98.60
54846;DHT22;53889;50.084;8.646;2023-11-19T15:43:48;13.90;98.50
54846;DHT22;53889;50.084;8.646;2023-11-19T15:46:16;13.90;98.90
54846;DHT22;53889;50.084;8.646;2023-11-19T15:48:45;13.90;99.10
54846;DHT22;53889;50.084;8.646;2023-11-19T15:51:13;13.80;98.90
54846;DHT22;53889;50.084;8.646;2023-11-19T15:53:40;13.80;99.10
54846;DHT22;53889;50.084;8.646;2023-11-19T15:56:08;13.80;99.10
54846;DHT22;53889;50.084;8.646;2023-11-19T16:01:05;13.70;99.00
54846;DHT22;53889;50.084;8.646;2023-11-19T16:03:34;13.70;98.90
54846;DHT22;53889;50.084;8.646;2023-11-19T16:06:02;13.60;98.90
54846;DHT22;53889;50.084;8.646;2023-11-19T16:08:29;13.60;98.80
54846;DHT22;53889;50.084;8.646;2023-11-19T16:10:56;13.60;99.20
54846;DHT22;53889;50.084;8.646;2023-11-19T16:13:23;13.60;99.40
54846;DHT22;53889;50.084;8.646;2023-11-19T16:15:50;13.50;99.30
54846;DHT22;53889;50.084;8.646;2023-11-19T16:18:17;13.50;99.20
54846;DHT22;53889;50.084;8.646;2023-11-19T16:20:45;13.50;99.20
54846;DHT22;53889;50.084;8.646;2023-11-19T16:23:11;13.50;99.40
54846;DHT22;53889;50.084;8.646;2023-11-19T16:25:38;13.50;99.40
54846;DHT22;53889;50.084;8.646;2023-11-19T16:28:05;13.50;99.60
54846;DHT22;53889;50.084;8.646;2023-11-19T16:30:33;13.50;99.40
54846;DHT22;53889;50.084;8.646;2023-11-19T16:33:01;13.50;99.60
54846;DHT22;53889;50.084;8.646;2023-11-19T16:35:28;13.50;99.60
54846;DHT22;53889;50.084;8.646;2023-11-19T16:37:57;13.50;99.30
54846;DHT22;53889;50.084;8.646;2023-11-19T16:40:24;13.40;99.40